createdAt,value
2018-09-11T00:01:01.208Z,99.9
2018-09-11T00:02:08.143Z,99.9
2018-09-11T00:03:15.356Z,99.9
2018-09-11T00:04:22.566Z,99.9
2018-09-11T00:05:29.775Z,99.9
2018-09-11T00:06:36.993Z,99.9
2018-09-11T00:07:44.205Z,99.9
2018-09-11T00:08:51.414Z,99.9
2018-09-11T00:09:58.628Z,99.9
2018-09-11T00:11:05.841Z,99.9
2018-09-11T00:12:13.261Z,99.9
2018-09-11T00:13:20.480Z,99.9
2018-09-11T00:14:27.139Z,99.9
2018-09-11T00:15:34.360Z,99.9
2018-09-11T00:16:41.573Z,99.9
2018-09-11T00:17:48.797Z,99.9
2018-09-11T00:18:56.007Z,99.9
2018-09-11T00:20:02.953Z,99.9
2018-09-11T00:21:10.167Z,99.9
2018-09-11T00:22:17.377Z,99.9
2018-09-11T00:23:24.588Z,99.9
2018-09-11T00:24:31.798Z,99.9
2018-09-11T00:25:39.010Z,99.9
2018-09-11T00:26:46.224Z,99.9
2018-09-11T00:27:53.427Z,99.9
2018-09-11T00:29:00.642Z,99.9
2018-09-11T00:30:07.852Z,99.9
2018-09-11T00:31:15.063Z,99.9
2018-09-11T00:32:22.275Z,99.9
2018-09-11T00:33:29.490Z,99.9
2018-09-11T00:34:36.699Z,99.9
2018-09-11T00:35:43.908Z,99.9
2018-09-11T00:36:51.123Z,99.9
2018-09-11T00:37:58.089Z,99.9
2018-09-11T00:39:05.294Z,99.9
2018-09-11T00:40:12.251Z,99.9
2018-09-11T00:41:19.457Z,99.9
2018-09-11T00:42:26.669Z,99.9
2018-09-11T00:43:33.881Z,99.9
2018-09-11T00:44:41.090Z,99.9
2018-09-11T00:45:48.299Z,99.9
2018-09-11T00:46:55.515Z,99.9
2018-09-11T00:48:02.731Z,99.9
2018-09-11T00:49:09.937Z,99.9
2018-09-11T00:50:17.147Z,99.9
2018-09-11T00:51:24.564Z,99.9
2018-09-11T00:52:31.775Z,99.9
2018-09-11T00:53:38.988Z,99.9
2018-09-11T00:54:46.193Z,99.9
2018-09-11T00:55:53.400Z,99.9
2018-09-11T00:57:00.618Z,99.9
2018-09-11T00:58:07.835Z,99.9
2018-09-11T00:59:14.774Z,99.9
2018-09-11T01:00:21.986Z,99.9
2018-09-11T01:01:29.215Z,99.9
2018-09-11T01:02:36.422Z,99.9
2018-09-11T01:03:43.630Z,99.9
2018-09-11T01:04:50.845Z,99.9
2018-09-11T01:05:58.049Z,99.9
2018-09-11T01:07:05.260Z,99.9
2018-09-11T01:08:12.494Z,99.9
2018-09-11T01:09:19.698Z,99.9
2018-09-11T01:10:26.908Z,99.9
2018-09-11T01:11:33.849Z,99.9
2018-09-11T01:12:40.786Z,99.9
2018-09-11T01:13:47.999Z,99.9
2018-09-11T01:14:54.930Z,99.9
2018-09-11T01:16:02.148Z,99.9
2018-09-11T01:17:09.361Z,99.9
2018-09-11T01:18:16.568Z,99.9
2018-09-11T01:19:23.782Z,99.9
2018-09-11T01:20:30.993Z,99.9
2018-09-11T01:21:38.201Z,99.9
2018-09-11T01:22:45.412Z,99.9
2018-09-11T01:23:52.349Z,99.9
2018-09-11T01:24:59.556Z,99.9
2018-09-11T01:26:06.810Z,99.9
2018-09-11T01:27:14.034Z,99.9
2018-09-11T01:28:21.248Z,99.9
2018-09-11T01:29:28.461Z,99.9
2018-09-11T01:30:35.671Z,99.9
2018-09-11T01:31:42.879Z,99.9
2018-09-11T01:32:50.100Z,99.9
2018-09-11T01:33:57.305Z,99.9
2018-09-11T01:35:04.243Z,99.9
2018-09-11T01:36:11.451Z,99.9
2018-09-11T01:37:18.698Z,99.9
2018-09-11T01:38:25.908Z,99.9
2018-09-11T01:39:33.122Z,99.9
2018-09-11T01:40:40.375Z,99.9
2018-09-11T01:41:47.585Z,99.9
2018-09-11T01:42:54.803Z,99.9
2018-09-11T01:44:02.020Z,99.9
2018-09-11T01:45:08.957Z,99.9
2018-09-11T01:46:16.171Z,99.9
2018-09-11T01:47:23.384Z,99.9
2018-09-11T01:48:30.596Z,99.9
2018-09-11T01:49:37.809Z,99.9
2018-09-11T01:50:45.018Z,99.9
2018-09-11T01:51:52.229Z,99.9
2018-09-11T01:52:59.437Z,99.9
2018-09-11T01:54:06.655Z,99.9
2018-09-11T01:55:13.860Z,99.9
2018-09-11T01:56:21.066Z,99.9
2018-09-11T01:57:28.282Z,99.9
2018-09-11T01:58:35.490Z,99.9
2018-09-11T01:59:42.701Z,99.9
2018-09-11T02:00:49.910Z,99.9
2018-09-11T02:01:57.119Z,99.9
2018-09-11T02:03:04.329Z,99.9
2018-09-11T02:04:11.541Z,99.9
2018-09-11T02:05:18.474Z,99.9
2018-09-11T02:06:25.683Z,99.9
2018-09-11T02:07:32.896Z,99.9
2018-09-11T02:08:39.829Z,99.9
2018-09-11T02:09:47.046Z,99.9
2018-09-11T02:10:54.262Z,99.9
2018-09-11T02:12:01.470Z,99.9
2018-09-11T02:13:08.683Z,99.9
2018-09-11T02:14:15.618Z,99.9
2018-09-11T02:15:22.833Z,99.9
2018-09-11T02:16:30.047Z,99.9
2018-09-11T02:17:37.254Z,99.9
2018-09-11T02:18:44.469Z,99.9
2018-09-11T02:19:51.404Z,99.9
2018-09-11T02:20:58.617Z,99.9
2018-09-11T02:22:05.826Z,99.9
2018-09-11T02:23:12.762Z,99.9
2018-09-11T02:24:19.697Z,99.9
2018-09-11T02:25:26.911Z,99.9
2018-09-11T02:26:34.114Z,99.9
2018-09-11T02:27:41.354Z,99.9
2018-09-11T02:28:48.285Z,99.9
2018-09-11T02:29:55.496Z,99.9
2018-09-11T02:31:02.712Z,99.9
2018-09-11T02:32:09.914Z,99.9
2018-09-11T02:33:17.126Z,99.9
2018-09-11T02:34:24.058Z,99.9
2018-09-11T02:35:31.271Z,99.9
2018-09-11T02:36:38.541Z,99.9
2018-09-11T02:37:45.748Z,99.9
2018-09-11T02:38:52.959Z,99.9
2018-09-11T02:40:00.199Z,99.9
2018-09-11T02:41:07.493Z,99.9
2018-09-11T02:42:14.696Z,99.9
2018-09-11T02:43:21.626Z,99.9
2018-09-11T02:44:28.831Z,99.9
2018-09-11T02:45:36.037Z,99.9
2018-09-11T02:46:43.250Z,99.9
2018-09-11T02:47:50.181Z,99.9
2018-09-11T02:48:57.114Z,99.9
2018-09-11T02:50:04.338Z,99.9
2018-09-11T02:51:11.549Z,99.9
2018-09-11T02:52:18.758Z,99.9
2018-09-11T02:53:25.969Z,99.9
2018-09-11T02:54:33.173Z,99.9
2018-09-11T02:55:40.109Z,99.9
2018-09-11T02:56:47.322Z,99.9
2018-09-11T02:57:54.532Z,99.9
2018-09-11T02:59:01.744Z,99.9
2018-09-11T03:00:08.961Z,99.9
2018-09-11T03:01:16.182Z,99.9
2018-09-11T03:02:23.388Z,99.9
2018-09-11T03:03:30.600Z,99.9
2018-09-11T03:04:37.537Z,99.9
2018-09-11T03:05:44.756Z,99.9
2018-09-11T03:06:51.970Z,99.9
2018-09-11T03:07:59.184Z,99.9
2018-09-11T03:09:06.390Z,99.9
2018-09-11T03:10:13.600Z,99.9
2018-09-11T03:11:20.809Z,99.9
2018-09-11T03:12:28.071Z,99.9
2018-09-11T03:13:35.280Z,99.9
2018-09-11T03:14:42.484Z,99.9
2018-09-11T03:15:49.693Z,99.9
2018-09-11T03:16:56.908Z,99.9
2018-09-11T03:18:04.121Z,99.9
2018-09-11T03:19:11.335Z,99.9
2018-09-11T03:20:18.537Z,99.9
2018-09-11T03:21:25.482Z,99.9
2018-09-11T03:22:32.417Z,99.9
2018-09-11T03:23:39.628Z,99.9
2018-09-11T03:24:46.837Z,99.9
2018-09-11T03:25:54.267Z,99.9
2018-09-11T03:27:01.482Z,99.9
2018-09-11T03:28:08.421Z,99.9
2018-09-11T03:29:15.672Z,99.9
2018-09-11T03:30:22.880Z,99.9
2018-09-11T03:31:30.100Z,99.9
2018-09-11T03:32:37.312Z,99.9
2018-09-11T03:33:44.519Z,99.9
2018-09-11T03:34:51.728Z,99.9
2018-09-11T03:35:58.934Z,99.9
2018-09-11T03:37:06.147Z,99.9
2018-09-11T03:38:13.357Z,99.9
2018-09-11T03:39:20.573Z,99.9
2018-09-11T03:40:27.781Z,99.9
2018-09-11T03:41:35.003Z,99.9
2018-09-11T03:42:42.216Z,99.9
2018-09-11T03:43:49.158Z,99.9
2018-09-11T03:44:56.368Z,99.9
2018-09-11T03:46:03.305Z,99.9
2018-09-11T03:47:10.515Z,99.9
2018-09-11T03:48:17.455Z,99.9
2018-09-11T03:49:24.668Z,99.9
2018-09-11T03:50:31.877Z,99.9
2018-09-11T03:51:39.084Z,99.9
2018-09-11T03:52:46.292Z,99.9
2018-09-11T03:53:52.954Z,99.9
2018-09-11T03:55:00.167Z,99.9
2018-09-11T03:56:07.383Z,99.9
2018-09-11T03:57:14.593Z,99.9
2018-09-11T03:58:21.805Z,99.9
2018-09-11T03:59:29.029Z,99.9
2018-09-11T04:00:36.241Z,99.9
2018-09-11T04:01:43.457Z,99.9
2018-09-11T04:02:50.665Z,99.9
2018-09-11T04:03:57.875Z,99.9
2018-09-11T04:05:05.093Z,99.9
2018-09-11T04:06:12.310Z,99.9
2018-09-11T04:07:19.519Z,99.9
2018-09-11T04:08:26.725Z,99.9
2018-09-11T04:09:33.656Z,99.9
2018-09-11T04:10:40.871Z,99.9
2018-09-11T04:11:48.083Z,99.9
2018-09-11T04:12:55.300Z,99.9
2018-09-11T04:14:02.513Z,99.9
2018-09-11T04:15:09.448Z,99.9
2018-09-11T04:16:16.657Z,99.9
2018-09-11T04:17:23.870Z,99.9
2018-09-11T04:18:31.078Z,99.9
2018-09-11T04:19:38.290Z,99.9
2018-09-11T04:20:45.500Z,99.9
2018-09-11T04:21:52.705Z,99.9
2018-09-11T04:22:59.915Z,99.9
2018-09-11T04:24:07.126Z,99.9
2018-09-11T04:25:14.333Z,99.9
2018-09-11T04:26:21.544Z,99.9
2018-09-11T04:27:28.757Z,99.9
2018-09-11T04:28:35.969Z,99.9
2018-09-11T04:29:43.179Z,99.9
2018-09-11T04:30:50.389Z,99.9
2018-09-11T04:31:57.604Z,99.9
2018-09-11T04:33:04.814Z,99.9
2018-09-11T04:34:12.024Z,99.9
2018-09-11T04:35:19.235Z,99.9
2018-09-11T04:36:26.466Z,99.9
2018-09-11T04:37:33.621Z,99.9
2018-09-11T04:38:40.855Z,99.9
2018-09-11T04:39:48.060Z,99.9
2018-09-11T04:40:55.268Z,99.9
2018-09-11T04:42:02.487Z,99.9
2018-09-11T04:43:09.763Z,99.9
2018-09-11T04:44:17.488Z,99.9
2018-09-11T04:45:24.740Z,99.9
2018-09-11T04:46:31.948Z,99.9
2018-09-11T04:47:39.157Z,99.9
2018-09-11T04:48:46.094Z,99.9
2018-09-11T04:49:53.311Z,99.9
2018-09-11T04:51:00.550Z,99.9
2018-09-11T04:52:07.773Z,99.9
2018-09-11T04:53:14.708Z,99.9
2018-09-11T04:54:21.912Z,99.9
2018-09-11T04:55:29.123Z,99.9
2018-09-11T04:56:36.329Z,99.9
2018-09-11T04:57:43.276Z,99.9
2018-09-11T04:58:50.478Z,99.9
2018-09-11T04:59:57.687Z,99.9
2018-09-11T05:01:04.910Z,99.9
2018-09-11T05:02:12.117Z,99.9
2018-09-11T05:03:19.332Z,99.9
2018-09-11T05:04:26.545Z,99.9
2018-09-11T05:05:33.767Z,99.9
2018-09-11T05:06:40.971Z,99.9
2018-09-11T05:07:48.177Z,99.9
2018-09-11T05:08:55.388Z,99.9
2018-09-11T05:10:02.602Z,99.9
2018-09-11T05:11:09.540Z,99.9
2018-09-11T05:12:16.758Z,99.9
2018-09-11T05:13:23.967Z,99.9
2018-09-11T05:14:31.173Z,99.9
2018-09-11T05:15:38.389Z,99.9
2018-09-11T05:16:45.050Z,99.9
2018-09-11T05:17:52.266Z,99.9
2018-09-11T05:18:59.228Z,99.9
2018-09-11T05:20:06.566Z,99.9
2018-09-11T05:21:13.772Z,99.9
2018-09-11T05:22:20.986Z,99.9
2018-09-11T05:23:28.192Z,99.9
2018-09-11T05:24:35.401Z,99.9
2018-09-11T05:25:42.635Z,99.9
2018-09-11T05:26:49.842Z,99.9
2018-09-11T05:27:57.053Z,99.9
2018-09-11T05:29:03.987Z,99.9
2018-09-11T05:30:11.205Z,99.9
2018-09-11T05:31:18.144Z,99.9
2018-09-11T05:32:25.348Z,99.9
2018-09-11T05:33:32.560Z,99.9
2018-09-11T05:34:39.769Z,99.9
2018-09-11T05:35:46.983Z,99.9
2018-09-11T05:36:54.191Z,99.9
2018-09-11T05:38:01.409Z,99.9
2018-09-11T05:39:08.677Z,99.9
2018-09-11T05:40:16.142Z,99.9
2018-09-11T05:41:23.357Z,99.9
2018-09-11T05:42:30.569Z,99.9
2018-09-11T05:43:37.782Z,99.9
2018-09-11T05:44:44.997Z,99.9
2018-09-11T05:45:52.210Z,99.9
2018-09-11T05:46:59.148Z,99.9
2018-09-11T05:48:06.527Z,99.9
2018-09-11T05:49:13.742Z,99.9
2018-09-11T05:50:20.966Z,99.9
2018-09-11T05:51:28.188Z,99.9
2018-09-11T05:52:35.400Z,99.9
2018-09-11T05:53:42.614Z,99.9
2018-09-11T05:54:49.817Z,99.9
2018-09-11T05:55:57.037Z,99.9
2018-09-11T05:57:04.288Z,99.9
2018-09-11T05:58:11.005Z,99.9
2018-09-11T05:59:18.352Z,99.9
2018-09-11T06:00:25.300Z,99.9
2018-09-11T06:01:32.501Z,99.9
2018-09-11T06:02:39.724Z,99.9
2018-09-11T06:03:46.664Z,99.9
2018-09-11T06:04:53.881Z,99.9
2018-09-11T06:06:01.098Z,99.9
2018-09-11T06:07:08.309Z,99.9
2018-09-11T06:08:15.536Z,99.9
2018-09-11T06:09:22.752Z,99.9
2018-09-11T06:10:29.966Z,99.9
2018-09-11T06:11:37.173Z,99.9
2018-09-11T06:12:44.385Z,99.9
2018-09-11T06:13:51.596Z,99.9
2018-09-11T06:14:58.812Z,99.9
2018-09-11T06:16:06.049Z,99.9
2018-09-11T06:17:13.281Z,99.9
2018-09-11T06:18:20.528Z,99.9
2018-09-11T06:19:27.739Z,99.9
2018-09-11T06:20:34.941Z,99.9
2018-09-11T06:21:42.154Z,99.9
2018-09-11T06:22:49.362Z,99.9
2018-09-11T06:23:56.578Z,99.9
2018-09-11T06:25:03.804Z,99.9
2018-09-11T06:26:11.007Z,99.9
2018-09-11T06:27:18.230Z,99.9
2018-09-11T06:28:25.441Z,99.9
2018-09-11T06:29:32.654Z,99.9
2018-09-11T06:30:39.871Z,99.9
2018-09-11T06:31:47.082Z,99.9
2018-09-11T06:32:54.292Z,99.9
2018-09-11T06:34:01.514Z,99.9
2018-09-11T06:35:08.759Z,99.9
2018-09-11T06:36:15.974Z,99.9
2018-09-11T06:37:23.198Z,99.9
2018-09-11T06:38:30.414Z,99.9
2018-09-11T06:39:37.355Z,99.9
2018-09-11T06:40:44.569Z,99.9
2018-09-11T06:41:51.787Z,99.9
2018-09-11T06:42:59.000Z,99.9
2018-09-11T06:44:06.219Z,99.9
2018-09-11T06:45:13.436Z,99.9
2018-09-11T06:46:20.656Z,99.9
2018-09-11T06:47:27.882Z,99.9
2018-09-11T06:48:34.840Z,99.9
2018-09-11T06:49:42.057Z,99.9
2018-09-11T06:50:49.279Z,99.9
2018-09-11T06:51:56.482Z,99.9
2018-09-11T06:53:03.702Z,99.9
2018-09-11T06:54:10.916Z,99.9
2018-09-11T06:55:17.860Z,99.9
2018-09-11T06:56:25.086Z,99.9
2018-09-11T06:57:32.301Z,99.9
2018-09-11T06:58:39.513Z,99.9
2018-09-11T06:59:46.729Z,99.9
2018-09-11T07:00:53.675Z,99.9
2018-09-11T07:02:00.952Z,99.9
2018-09-11T07:03:09.009Z,99.9
2018-09-11T07:04:15.950Z,99.9
2018-09-11T07:05:22.891Z,99.9
2018-09-11T07:06:30.110Z,99.9
2018-09-11T07:07:37.349Z,99.9
2018-09-11T07:08:44.277Z,99.9
2018-09-11T07:09:51.494Z,99.9
2018-09-11T07:10:58.712Z,99.9
2018-09-11T07:12:05.925Z,99.9
2018-09-11T07:13:13.142Z,99.9
2018-09-11T07:14:20.086Z,99.9
2018-09-11T07:15:27.293Z,99.9
2018-09-11T07:16:34.506Z,99.9
2018-09-11T07:17:41.741Z,99.9
2018-09-11T07:18:48.690Z,99.9
2018-09-11T07:19:56.022Z,99.9
2018-09-11T07:21:03.803Z,99.9
2018-09-11T07:22:10.774Z,99.9
2018-09-11T07:23:17.988Z,99.9
2018-09-11T07:24:25.218Z,99.9
2018-09-11T07:25:32.435Z,99.9
2018-09-11T07:26:39.647Z,99.9
2018-09-11T07:27:46.860Z,99.9
2018-09-11T07:28:54.071Z,99.9
2018-09-11T07:30:01.282Z,99.9
2018-09-11T07:31:08.500Z,99.9
2018-09-11T07:32:15.436Z,99.9
2018-09-11T07:33:22.763Z,99.9
2018-09-11T07:34:29.983Z,99.9
2018-09-11T07:35:37.199Z,99.9
2018-09-11T07:36:44.411Z,99.9
2018-09-11T07:37:51.644Z,99.9
2018-09-11T07:38:59.067Z,99.9
2018-09-11T07:40:06.288Z,99.9
2018-09-11T07:41:13.501Z,99.9
2018-09-11T07:42:20.723Z,99.9
2018-09-11T07:43:27.935Z,99.9
2018-09-11T07:44:34.892Z,99.9
2018-09-11T07:45:42.113Z,99.9
2018-09-11T07:46:49.325Z,99.9
2018-09-11T07:47:56.946Z,99.9
2018-09-11T07:49:04.168Z,99.9
2018-09-11T07:50:11.376Z,99.9
2018-09-11T07:51:18.589Z,99.9
2018-09-11T07:52:25.820Z,99.9
2018-09-11T07:53:32.845Z,99.9
2018-09-11T07:54:40.067Z,99.9
2018-09-11T07:55:47.284Z,99.9
2018-09-11T07:56:54.500Z,99.9
2018-09-11T07:58:01.765Z,99.9
2018-09-11T07:59:09.497Z,99.9
2018-09-11T08:00:16.708Z,99.9
2018-09-11T08:01:23.954Z,99.9
2018-09-11T08:02:31.175Z,99.9
2018-09-11T08:03:38.394Z,99.1
2018-09-11T08:04:45.336Z,98.5
2018-09-11T08:05:52.546Z,99.9
2018-09-11T08:06:59.757Z,99.9
2018-09-11T08:08:06.702Z,98.6
2018-09-11T08:09:13.644Z,97.6
2018-09-11T08:10:20.858Z,99.9
2018-09-11T08:11:28.078Z,94.8
2018-09-11T08:12:35.286Z,93.7
2018-09-11T08:13:42.511Z,95.6
2018-09-11T08:14:49.457Z,95.6
2018-09-11T08:15:56.670Z,94.7
2018-09-11T08:17:03.895Z,93.5
2018-09-11T08:18:10.830Z,93.4
2018-09-11T08:19:18.059Z,97.8
2018-09-11T08:20:25.283Z,98.7
2018-09-11T08:21:32.498Z,96.4
2018-09-11T08:22:39.715Z,98.6
2018-09-11T08:23:46.928Z,91.9
2018-09-11T08:24:54.149Z,89.7
2018-09-11T08:26:01.369Z,94
2018-09-11T08:27:08.582Z,88.3
2018-09-11T08:28:15.798Z,91.6
2018-09-11T08:29:23.054Z,92.6
2018-09-11T08:30:30.649Z,93
2018-09-11T08:31:37.595Z,89.3
2018-09-11T08:32:44.823Z,90.7
2018-09-11T08:33:52.022Z,90.7
2018-09-11T08:34:59.236Z,87.8
2018-09-11T08:36:06.451Z,68.3
2018-09-11T08:38:35.540Z,73.7
2018-09-11T08:39:42.762Z,72.3
2018-09-11T08:40:49.985Z,76.4
2018-09-11T08:41:56.970Z,63.1
2018-09-11T08:43:04.185Z,58.8
2018-09-11T08:44:11.132Z,61.7
2018-09-11T08:45:18.348Z,62.9
2018-09-11T08:46:25.563Z,52.7
2018-09-11T08:47:32.778Z,55.2
2018-09-11T08:48:39.993Z,47.2
2018-09-11T08:49:47.215Z,47.8
2018-09-11T08:50:54.435Z,53
2018-09-11T08:52:01.702Z,51.4
2018-09-11T08:53:09.060Z,50
2018-09-11T08:54:16.277Z,59.9
2018-09-11T08:55:23.497Z,57.2
2018-09-11T08:56:30.715Z,60
2018-09-11T08:57:37.936Z,53.7
2018-09-11T08:58:45.154Z,50.2
2018-09-11T08:59:52.370Z,49
2018-09-11T09:00:59.325Z,43
2018-09-11T09:02:06.547Z,47.7
2018-09-11T09:03:13.763Z,47
2018-09-11T09:04:20.980Z,53.3
2018-09-11T09:05:28.192Z,51.8
2018-09-11T09:06:35.411Z,58.2
2018-09-11T09:07:42.351Z,53.6
2018-09-11T09:08:49.566Z,58.7
2018-09-11T09:09:56.795Z,55.6
2018-09-11T09:11:04.093Z,51.4
2018-09-11T09:12:11.033Z,57.3
2018-09-11T09:13:18.249Z,53.9
2018-09-11T09:14:25.476Z,48.8
2018-09-11T09:15:32.691Z,49.4
2018-09-11T09:16:40.128Z,56.1
2018-09-11T09:17:47.358Z,49
2018-09-11T09:18:54.575Z,46.4
2018-09-11T09:20:01.794Z,41.8
2018-09-11T09:21:09.014Z,44.7
2018-09-11T09:22:16.229Z,41
2018-09-11T09:23:23.471Z,39.9
2018-09-11T09:24:30.409Z,47.2
2018-09-11T09:25:37.627Z,43.8
2018-09-11T09:26:44.840Z,37.8
2018-09-11T09:27:51.796Z,34.2
2018-09-11T09:28:58.774Z,32.1
2018-09-11T09:30:05.990Z,35.2
2018-09-11T09:31:13.210Z,34.6
2018-09-11T09:32:20.431Z,41.1
2018-09-11T09:33:27.646Z,36.5
2018-09-11T09:34:34.867Z,34.8
2018-09-11T09:35:42.085Z,39.7
2018-09-11T09:36:49.382Z,32.7
2018-09-11T09:37:56.740Z,29.4
2018-09-11T09:39:03.677Z,34.2
2018-09-11T09:40:10.912Z,29.7
2018-09-11T09:41:18.127Z,31.6
2018-09-11T09:42:25.343Z,33.4
2018-09-11T09:43:32.558Z,32.3
2018-09-11T09:44:39.778Z,33.9
2018-09-11T09:45:46.990Z,33.4
2018-09-11T09:46:53.941Z,31.6
2018-09-11T09:48:01.161Z,30.5
2018-09-11T09:49:08.377Z,30
2018-09-11T09:50:15.604Z,29
2018-09-11T09:51:22.823Z,33
2018-09-11T09:52:29.974Z,32.4
2018-09-11T09:53:36.962Z,31.6
2018-09-11T09:54:43.911Z,27.1
2018-09-11T09:55:51.137Z,27.8
2018-09-11T09:56:58.348Z,30.6
2018-09-11T09:58:05.569Z,27.4
2018-09-11T09:59:12.517Z,29.9
2018-09-11T10:00:19.743Z,30.7
2018-09-11T10:01:26.956Z,28.8
2018-09-11T10:02:34.181Z,29.1
2018-09-11T10:03:41.406Z,23.5
2018-09-11T10:04:48.664Z,25.3
2018-09-11T10:05:56.138Z,23.3
2018-09-11T10:07:03.572Z,23.7
2018-09-11T10:08:10.794Z,22
2018-09-11T10:09:18.033Z,24.7
2018-09-11T10:10:25.254Z,23.5
2018-09-11T10:11:32.477Z,22.3
2018-09-11T10:12:39.791Z,20.2
2018-09-11T10:13:47.011Z,22.8
2018-09-11T10:14:54.237Z,20.3
2018-09-11T10:16:01.479Z,24.3
2018-09-11T10:17:08.423Z,20.1
2018-09-11T10:18:15.367Z,20.2
2018-09-11T10:19:22.797Z,22
2018-09-11T10:20:30.031Z,19.3
2018-09-11T10:21:37.245Z,19.3
2018-09-11T10:22:44.219Z,19.1
2018-09-11T10:23:51.446Z,24.7
2018-09-11T10:24:58.663Z,17.4
2018-09-11T10:26:05.631Z,20.1
2018-09-11T10:27:12.840Z,19
2018-09-11T10:28:19.794Z,17.3
2018-09-11T10:29:27.018Z,16.7
2018-09-11T10:30:34.241Z,16.3
2018-09-11T10:31:41.458Z,14.6
2018-09-11T10:32:48.685Z,15.9
2018-09-11T10:33:55.991Z,17.4
2018-09-11T10:35:03.224Z,17.8
2018-09-11T10:36:10.443Z,15.5
2018-09-11T10:37:17.653Z,14
2018-09-11T10:38:24.872Z,16.6
2018-09-11T10:39:31.988Z,17.8
2018-09-11T10:40:39.633Z,12
2018-09-11T10:41:46.853Z,13.3
2018-09-11T10:42:54.070Z,15.2
2018-09-11T10:44:01.293Z,17.8
2018-09-11T10:45:08.513Z,14.2
2018-09-11T10:46:16.514Z,13.7
2018-09-11T10:47:23.739Z,16
2018-09-11T10:48:30.961Z,14.7
2018-09-11T10:49:38.186Z,13.1
2018-09-11T10:50:45.396Z,13.9
2018-09-11T10:51:52.624Z,13.5
2018-09-11T10:53:00.082Z,15.5
2018-09-11T10:54:07.294Z,12.3
2018-09-11T10:55:14.522Z,13.5
2018-09-11T10:56:21.960Z,12.6
2018-09-11T10:57:29.529Z,12.4
2018-09-11T10:58:36.754Z,13.8
2018-09-11T10:59:43.975Z,11.4
2018-09-11T11:00:51.192Z,12.3
2018-09-11T11:01:58.423Z,13.7
2018-09-11T11:03:05.634Z,12.6
2018-09-11T11:04:12.861Z,13.6
2018-09-11T11:05:20.086Z,12.2
2018-09-11T11:06:27.339Z,15.4
2018-09-11T11:07:34.562Z,15
2018-09-11T11:08:41.528Z,11.1
2018-09-11T11:09:48.742Z,12.7
2018-09-11T11:10:55.963Z,10.6
2018-09-11T11:12:03.181Z,10
2018-09-11T11:13:10.403Z,8.6
2018-09-11T11:14:17.630Z,9.7
2018-09-11T11:15:24.862Z,10.2
2018-09-11T11:16:32.082Z,11.1
2018-09-11T11:17:39.309Z,12.6
2018-09-11T11:18:46.532Z,12.8
2018-09-11T11:19:53.755Z,14.3
2018-09-11T11:21:00.976Z,11.7
2018-09-11T11:22:08.360Z,12.6
2018-09-11T11:23:15.582Z,13
2018-09-11T11:24:22.811Z,11.9
2018-09-11T11:25:30.037Z,13.7
2018-09-11T11:26:36.977Z,13.2
2018-09-11T11:27:44.195Z,12.8
2018-09-11T11:28:51.412Z,12.8
2018-09-11T11:29:58.632Z,11.1
2018-09-11T11:31:05.573Z,12.2
2018-09-11T11:32:12.793Z,11.5
2018-09-11T11:33:20.014Z,11.9
2018-09-11T11:34:27.230Z,10.5
2018-09-11T11:35:34.457Z,11.1
2018-09-11T11:36:41.768Z,8.9
2018-09-11T11:37:50.007Z,8.9
2018-09-11T11:38:57.227Z,8.4
2018-09-11T11:40:04.450Z,8.6
2018-09-11T11:41:11.670Z,8.2
2018-09-11T11:42:18.927Z,6.6
2018-09-11T11:43:26.561Z,7.7
2018-09-11T11:44:33.772Z,6.6
2018-09-11T11:45:40.989Z,8.6
2018-09-11T11:46:48.212Z,7.5
2018-09-11T11:47:55.430Z,8.1
2018-09-11T11:49:02.650Z,6.5
2018-09-11T11:50:09.873Z,6.1
2018-09-11T11:51:17.099Z,7
2018-09-11T11:52:24.321Z,6.3
2018-09-11T11:53:31.271Z,5
2018-09-11T11:54:38.492Z,5.1
2018-09-11T11:55:45.749Z,4.3
2018-09-11T11:56:52.970Z,3.4
2018-09-11T11:58:00.193Z,5.6
2018-09-11T11:59:07.415Z,4.7
2018-09-11T12:00:14.643Z,6.4
2018-09-11T12:01:21.588Z,4.6
2018-09-11T12:02:29.055Z,4.5
2018-09-11T12:03:36.272Z,3.8
2018-09-11T12:04:43.497Z,4.8
2018-09-11T12:05:50.728Z,2.1
2018-09-11T12:06:57.950Z,5.2
2018-09-11T12:08:05.173Z,2.1
2018-09-11T12:09:12.117Z,1
2018-09-11T12:10:19.334Z,1
2018-09-11T12:11:26.285Z,1
2018-09-11T12:12:33.505Z,1.5
2018-09-11T12:13:40.723Z,3.5
2018-09-11T12:14:47.943Z,3.4
2018-09-11T12:15:55.169Z,2.2
2018-09-11T12:17:02.402Z,1.1
2018-09-11T12:18:10.022Z,1.6
2018-09-11T12:19:17.246Z,1.1
2018-09-11T12:20:24.458Z,3.5
2018-09-11T12:21:31.681Z,2.7
2018-09-11T12:22:38.898Z,1.3
2018-09-11T12:23:46.119Z,1.9
2018-09-11T12:24:53.341Z,1
2018-09-11T12:26:00.559Z,4
2018-09-11T12:27:07.777Z,1.3
2018-09-11T12:28:14.993Z,3.1
2018-09-11T12:29:22.209Z,1
2018-09-11T12:30:29.151Z,1
2018-09-11T12:31:36.385Z,1.5
2018-09-11T12:32:43.600Z,1
2018-09-11T12:33:50.816Z,1
2018-09-11T12:34:58.045Z,1
2018-09-11T12:36:05.262Z,1
2018-09-11T12:37:12.480Z,1
2018-09-11T12:38:19.694Z,1
2018-09-11T12:39:26.907Z,1
2018-09-11T12:40:34.124Z,1
2018-09-11T12:41:41.344Z,1
2018-09-11T12:42:48.288Z,1
2018-09-11T12:43:55.518Z,1
2018-09-11T12:45:02.472Z,1
2018-09-11T12:46:09.791Z,1
2018-09-11T12:47:18.929Z,1
2018-09-11T12:48:27.794Z,1
2018-09-11T12:49:35.872Z,1
2018-09-11T12:50:43.119Z,1
2018-09-11T12:51:50.322Z,1
2018-09-11T12:52:57.270Z,1
2018-09-11T12:54:04.489Z,1
2018-09-11T12:55:11.712Z,1
2018-09-11T12:56:18.660Z,1
2018-09-11T12:57:25.896Z,1
2018-09-11T12:58:32.841Z,1
2018-09-11T12:59:40.059Z,1
2018-09-11T13:00:47.002Z,1
2018-09-11T13:01:54.227Z,1
2018-09-11T13:03:01.449Z,1
2018-09-11T13:04:08.673Z,1
2018-09-11T13:05:15.889Z,1
2018-09-11T13:06:23.110Z,1
2018-09-11T13:07:30.051Z,1
2018-09-11T13:08:37.269Z,1
2018-09-11T13:09:44.485Z,1
2018-09-11T13:10:51.725Z,1
2018-09-11T13:11:59.084Z,1
2018-09-11T13:13:06.306Z,1
2018-09-11T13:14:13.528Z,1
2018-09-11T13:15:20.746Z,1
2018-09-11T13:16:27.964Z,1
2018-09-11T13:17:35.188Z,1
2018-09-11T13:18:42.449Z,1
2018-09-11T13:19:49.393Z,1
2018-09-11T13:20:56.435Z,1
2018-09-11T13:22:03.660Z,1
2018-09-11T13:23:10.874Z,1
2018-09-11T13:24:18.098Z,1
2018-09-11T13:25:25.403Z,1
2018-09-11T13:26:33.023Z,1
2018-09-11T13:27:39.965Z,1
2018-09-11T13:28:47.195Z,1
2018-09-11T13:29:54.423Z,1
2018-09-11T13:31:01.643Z,1
2018-09-11T13:32:08.860Z,1
2018-09-11T13:33:16.081Z,1
2018-09-11T13:34:23.318Z,1
2018-09-11T13:35:30.540Z,1
2018-09-11T13:36:37.483Z,1
2018-09-11T13:37:44.696Z,1
2018-09-11T13:38:51.644Z,1
2018-09-11T13:39:58.864Z,1
2018-09-11T13:41:05.821Z,1
2018-09-11T13:42:13.042Z,1
2018-09-11T13:43:20.264Z,1
2018-09-11T13:44:27.228Z,1
2018-09-11T13:45:34.452Z,1
2018-09-11T13:46:41.674Z,1
2018-09-11T13:47:48.958Z,1
2018-09-11T13:48:56.481Z,1
2018-09-11T13:50:03.702Z,1
2018-09-11T13:51:10.930Z,1
2018-09-11T13:52:18.151Z,1
2018-09-11T13:53:25.368Z,1
2018-09-11T13:54:32.596Z,1
2018-09-11T13:55:39.817Z,1
2018-09-11T13:56:47.039Z,1
2018-09-11T13:57:54.261Z,1
2018-09-11T13:59:01.483Z,1
2018-09-11T14:00:08.717Z,1
2018-09-11T14:01:15.940Z,1
2018-09-11T14:02:23.160Z,1
2018-09-11T14:03:30.451Z,1
2018-09-11T14:04:37.676Z,1
2018-09-11T14:05:44.906Z,1
2018-09-11T14:06:52.140Z,1
2018-09-11T14:07:59.365Z,1
2018-09-11T14:09:06.304Z,1
2018-09-11T14:10:13.259Z,1
2018-09-11T14:11:20.486Z,1
2018-09-11T14:12:27.438Z,1
2018-09-11T14:13:34.671Z,1
2018-09-11T14:14:41.890Z,1
2018-09-11T14:15:49.166Z,1
2018-09-11T14:16:56.318Z,1
2018-09-11T14:18:03.561Z,1
2018-09-11T14:19:10.787Z,1
2018-09-11T14:20:18.009Z,1
2018-09-11T14:21:25.011Z,1
2018-09-11T14:22:32.271Z,1
2018-09-11T14:23:39.495Z,1
2018-09-11T14:24:46.721Z,1
2018-09-11T14:25:53.938Z,1
2018-09-11T14:27:00.887Z,1
2018-09-11T14:28:08.105Z,1
2018-09-11T14:29:15.332Z,1
2018-09-11T14:30:22.548Z,1
2018-09-11T14:31:29.775Z,1
2018-09-11T14:32:36.997Z,1
2018-09-11T14:33:44.223Z,1
2018-09-11T14:34:51.447Z,1
2018-09-11T14:35:58.664Z,1
2018-09-11T14:37:05.641Z,1
2018-09-11T14:38:12.597Z,1
2018-09-11T14:39:19.817Z,1
2018-09-11T14:40:27.036Z,1
2018-09-11T14:41:33.985Z,1
2018-09-11T14:42:40.942Z,1
2018-09-11T14:43:48.164Z,1
2018-09-11T14:44:55.384Z,1
2018-09-11T14:46:02.619Z,1
2018-09-11T14:47:09.830Z,1
2018-09-11T14:48:17.052Z,1
2018-09-11T14:49:24.269Z,1
2018-09-11T14:50:31.499Z,1
2018-09-11T14:51:38.719Z,1
2018-09-11T14:52:46.080Z,1
2018-09-11T14:53:53.374Z,1
2018-09-11T14:55:00.609Z,1
2018-09-11T14:56:07.558Z,1
2018-09-11T14:57:14.829Z,1
2018-09-11T14:58:22.099Z,1
2018-09-11T14:59:29.322Z,1
2018-09-11T15:00:36.578Z,1
2018-09-11T15:01:43.805Z,1
2018-09-11T15:02:51.027Z,1
2018-09-11T15:03:58.246Z,1
2018-09-11T15:05:05.189Z,1
2018-09-11T15:06:12.407Z,1
2018-09-11T15:07:19.630Z,1
2018-09-11T15:08:26.853Z,1
2018-09-11T15:09:34.075Z,1
2018-09-11T15:10:41.297Z,1
2018-09-11T15:11:48.526Z,1
2018-09-11T15:12:55.744Z,1
2018-09-11T15:14:02.969Z,1
2018-09-11T15:15:09.964Z,1
2018-09-11T15:16:17.757Z,1
2018-09-11T15:17:24.975Z,1